Time;durP1;ratioP1;P1;durP2;ratioP2;P2;SDS_P1;SDS_P2;PMS_P1;PMS_P2;Temp;Humidity;BMP_temperature;BMP_pressure;BME280_temperature;BME280_humidity;BME280_pressure;Samples;Min_cycle;Max_cycle;Signal;HPM_P1;HPM_P2
2022/01/03 00:00:52;;;;;;;18.55;2.17;;;8.50;99.90;;;;;;5060556;28;20048;-94
2022/01/03 00:03:19;;;;;;;24.00;2.38;;;8.60;99.90;;;;;;5059404;28;20055;-91
2022/01/03 00:05:45;;;;;;;26.98;2.78;;;8.60;99.90;;;;;;5060106;28;20056;-94
2022/01/03 00:08:11;;;;;;;28.63;2.85;;;8.60;99.90;;;;;;5059748;28;20490;-92
2022/01/03 00:10:37;;;;;;;23.65;2.33;;;8.60;99.90;;;;;;5059713;28;20093;-94
2022/01/03 00:13:04;;;;;;;23.33;2.60;;;8.80;99.90;;;;;;5060145;28;20051;-93
2022/01/03 00:15:30;;;;;;;23.88;2.88;;;8.60;99.90;;;;;;5060433;28;20528;-94
2022/01/03 00:17:56;;;;;;;26.73;3.05;;;8.70;99.90;;;;;;5076803;28;20138;-92
2022/01/03 00:20:27;;;;;;;23.85;2.08;;;8.60;99.90;;;;;;5060006;28;20098;-94
2022/01/03 00:23:03;;;;;;;22.75;2.55;;;8.70;99.90;;;;;;5059960;28;20121;-91
2022/01/03 00:25:30;;;;;;;17.42;2.97;;;8.70;99.90;;;;;;5056040;28;20067;-94
2022/01/03 00:28:07;;;;;;;22.27;3.10;;;8.90;99.90;;;;;;5056250;28;20116;-92
2022/01/03 00:30:39;;;;;;;25.00;3.35;;;8.70;99.90;;;;;;5056251;28;20098;-93
2022/01/03 00:33:06;;;;;;;23.40;2.70;;;8.70;99.90;;;;;;5056488;28;20143;-93
2022/01/03 00:35:38;;;;;;;25.90;3.20;;;8.80;99.90;;;;;;5073064;28;20055;-94
2022/01/03 00:38:07;;;;;;;22.45;2.50;;;9.10;99.90;;;;;;5055705;28;20088;-93
2022/01/03 00:40:34;;;;;;;21.02;2.03;;;8.80;99.90;;;;;;5056728;28;20074;-92
2022/01/03 00:43:02;;;;;;;26.30;2.63;;;9.10;99.90;;;;;;5056213;28;20383;-93
2022/01/03 00:45:28;;;;;;;26.45;2.88;;;8.80;99.90;;;;;;5056426;28;20056;-93
2022/01/03 00:47:57;;;;;;;25.83;3.42;;;8.80;99.90;;;;;;5055830;28;20106;-94
2022/01/03 00:50:23;;;;;;;23.98;3.15;;;8.80;99.90;;;;;;5056494;28;20095;-95
2022/01/03 00:52:51;;;;;;;20.38;2.50;;;8.80;99.90;;;;;;5055260;28;20055;-91
2022/01/03 00:55:18;;;;;;;22.42;2.58;;;8.80;99.90;;;;;;5056089;28;20053;-93
2022/01/03 00:58:08;;;;;;;21.30;2.97;;;8.80;99.90;;;;;;5072323;28;20060;-92
2022/01/03 01:00:41;;;;;;;17.27;2.22;;;8.90;99.90;;;;;;5055874;28;20074;-94
2022/01/03 01:03:15;;;;;;;28.55;3.20;;;8.80;99.90;;;;;;5055390;28;20048;-93
2022/01/03 01:05:47;;;;;;;23.52;3.20;;;8.80;99.90;;;;;;5055855;28;20049;-91
2022/01/03 01:08:18;;;;;;;23.65;2.30;;;8.70;99.90;;;;;;5055669;28;20052;-93
2022/01/03 01:10:45;;;;;;;23.13;2.78;;;8.70;99.90;;;;;;5055471;28;20311;-94
2022/01/03 01:13:13;;;;;;;24.67;3.05;;;8.80;99.90;;;;;;5055764;28;20137;-91
2022/01/03 01:15:39;;;;;;;21.33;2.65;;;8.70;99.90;;;;;;5055731;28;20048;-92
2022/01/03 01:18:06;;;;;;;18.83;2.45;;;8.70;99.90;;;;;;5055425;28;20064;-94
2022/01/03 01:20:35;;;;;;;31.75;3.17;;;8.70;99.90;;;;;;5073090;28;20061;-93
2022/01/03 01:23:02;;;;;;;25.30;2.50;;;9.00;99.90;;;;;;5073114;28;20059;-94
2022/01/03 01:28:07;;;;;;;17.83;2.33;;;8.80;99.90;;;;;;5073126;28;20126;-95
2022/01/03 01:30:33;;;;;;;24.95;2.72;;;8.80;99.90;;;;;;5056647;28;20085;-93
2022/01/03 01:33:14;;;;;;;20.63;2.92;;;8.90;99.90;;;;;;5055329;28;20422;-93
2022/01/03 01:35:50;;;;;;;23.83;2.90;;;9.00;99.90;;;;;;5055618;28;20142;-92
2022/01/03 01:38:28;;;;;;;26.15;2.75;;;9.10;99.90;;;;;;5055362;28;20171;-94
2022/01/03 01:40:55;;;;;;;19.67;2.47;;;8.90;99.90;;;;;;5055686;28;20079;-95
2022/01/03 01:43:37;;;;;;;23.85;3.00;;;9.10;99.90;;;;;;5056143;28;20120;-94
2022/01/03 01:46:10;;;;;;;19.98;2.83;;;8.90;99.90;;;;;;5056088;28;20045;-93
2022/01/03 01:48:38;;;;;;;22.67;2.80;;;8.90;99.90;;;;;;5055726;28;20468;-91
2022/01/03 01:51:09;;;;;;;26.58;3.00;;;8.80;99.90;;;;;;5071945;28;20052;-93
2022/01/03 01:53:45;;;;;;;23.83;3.20;;;8.90;99.90;;;;;;5055713;28;20537;-94
2022/01/03 01:56:23;;;;;;;28.40;3.65;;;8.90;99.90;;;;;;5055822;28;20059;-93
2022/01/03 01:58:49;;;;;;;26.27;3.22;;;8.80;99.90;;;;;;5056531;28;20063;-93
2022/01/03 02:01:15;;;;;;;17.30;2.35;;;9.00;99.90;;;;;;5055765;28;20060;-94
2022/01/03 02:04:08;;;;;;;17.90;2.45;;;8.90;99.90;;;;;;5056404;28;20371;-95
2022/01/03 02:06:47;;;;;;;23.83;3.28;;;9.20;99.90;;;;;;5057004;28;20053;-95
2022/01/03 02:09:21;;;;;;;15.35;3.10;;;9.10;99.90;;;;;;5055825;28;20117;-94
2022/01/03 02:11:46;;;;;;;18.67;2.53;;;9.00;99.90;;;;;;5071843;28;20509;-92
2022/01/03 02:14:13;;;;;;;19.75;3.40;;;9.00;99.90;;;;;;5055494;28;20050;-94
2022/01/03 02:16:39;;;;;;;17.73;2.60;;;8.90;99.90;;;;;;5072130;28;20068;-93
2022/01/03 02:19:07;;;;;;;19.10;2.75;;;9.10;99.90;;;;;;5055582;28;20148;-92
2022/01/03 02:21:33;;;;;;;26.90;3.20;;;8.80;99.90;;;;;;5055351;28;20052;-93
2022/01/03 02:23:59;;;;;;;27.33;3.67;;;8.80;99.90;;;;;;5056371;28;20048;-92
2022/01/03 02:26:27;;;;;;;16.27;2.95;;;8.70;99.90;;;;;;5058993;28;20060;-92
2022/01/03 02:28:53;;;;;;;22.27;2.70;;;8.70;99.90;;;;;;5062760;28;20091;-93
2022/01/03 02:31:19;;;;;;;21.10;3.25;;;8.80;99.90;;;;;;5062387;28;20574;-94
2022/01/03 02:33:44;;;;;;;23.80;3.35;;;8.70;99.90;;;;;;5062080;28;20155;-96
2022/01/03 02:36:10;;;;;;;25.73;2.70;;;8.70;99.90;;;;;;5062589;28;20401;-94
2022/01/03 02:38:37;;;;;;;27.85;2.85;;;8.70;99.90;;;;;;5062046;28;20482;-93
2022/01/03 02:41:03;;;;;;;19.17;2.60;;;9.00;99.90;;;;;;5062110;28;20059;-93
2022/01/03 02:43:29;;;;;;;22.65;2.53;;;8.70;99.90;;;;;;5062250;28;20052;-94
2022/01/03 02:45:54;;;;;;;23.77;3.15;;;9.00;99.90;;;;;;5078605;28;20048;-94
2022/01/03 02:48:22;;;;;;;24.98;3.33;;;8.70;99.90;;;;;;5078187;28;20044;-92
2022/01/03 02:50:48;;;;;;;24.75;2.45;;;8.60;99.90;;;;;;5061957;28;20051;-91
2022/01/03 02:53:14;;;;;;;24.15;3.25;;;8.60;99.90;;;;;;5078524;28;20047;-93
2022/01/03 02:55:40;;;;;;;20.83;2.75;;;8.70;99.90;;;;;;5061833;28;20095;-92
2022/01/03 02:58:07;;;;;;;23.63;2.95;;;8.50;99.90;;;;;;5078189;28;20052;-93
2022/01/03 03:00:44;;;;;;;28.00;3.15;;;8.40;99.90;;;;;;5061244;28;20512;-94
2022/01/03 03:03:11;;;;;;;32.75;3.15;;;8.50;99.90;;;;;;5061539;28;20048;-94
2022/01/03 03:05:37;;;;;;;28.80;4.43;;;8.70;99.90;;;;;;5061956;28;20056;-94
2022/01/03 03:08:03;;;;;;;33.95;4.28;;;8.50;99.90;;;;;;5062066;28;20054;-95
2022/01/03 03:10:29;;;;;;;22.55;2.88;;;8.50;99.90;;;;;;5062212;28;20052;-94
2022/01/03 03:12:55;;;;;;;24.90;2.80;;;8.50;99.90;;;;;;5061099;28;20060;-93
2022/01/03 03:15:20;;;;;;;27.25;3.85;;;8.50;99.90;;;;;;5061715;28;20164;-94
2022/01/03 03:17:48;;;;;;;23.38;3.03;;;8.30;99.90;;;;;;5061355;28;20078;-95
2022/01/03 03:20:23;;;;;;;24.58;3.30;;;8.40;99.90;;;;;;5060968;28;20056;-94
2022/01/03 03:22:49;;;;;;;22.42;3.33;;;8.30;99.90;;;;;;5061731;28;20051;-93
2022/01/03 03:25:24;;;;;;;24.88;3.53;;;8.30;99.90;;;;;;5060758;28;20143;-95
2022/01/03 03:27:52;;;;;;;27.67;2.83;;;8.30;99.90;;;;;;5061128;28;20125;-94
2022/01/03 03:30:29;;;;;;;25.38;3.33;;;8.40;99.90;;;;;;5061344;28;20048;-93
2022/01/03 03:33:00;;;;;;;26.75;3.40;;;8.50;99.90;;;;;;5077764;28;20405;-95
2022/01/03 03:35:26;;;;;;;24.42;3.10;;;8.50;99.90;;;;;;5061537;28;20134;-94
2022/01/03 03:37:52;;;;;;;19.52;2.90;;;8.60;99.90;;;;;;5060568;28;20109;-93
2022/01/03 03:40:18;;;;;;;29.10;4.38;;;8.60;99.90;;;;;;5077766;28;20056;-94
2022/01/03 03:42:44;;;;;;;21.73;3.30;;;8.40;99.90;;;;;;5060692;28;20086;-92
2022/01/03 03:45:11;;;;;;;26.35;3.13;;;8.40;99.90;;;;;;5060787;28;20056;-93
2022/01/03 03:47:37;;;;;;;31.55;3.58;;;8.40;99.90;;;;;;5060444;28;20058;-94
2022/01/03 03:50:04;;;;;;;38.65;3.47;;;8.50;99.90;;;;;;5077651;28;20494;-94
2022/01/03 03:52:30;;;;;;;25.48;2.78;;;8.60;99.90;;;;;;5061724;28;20059;-93
2022/01/03 03:54:56;;;;;;;23.70;2.67;;;8.60;99.90;;;;;;5077728;28;20486;-94
2022/01/03 03:57:22;;;;;;;21.55;2.72;;;8.70;99.90;;;;;;5060845;28;20040;-93
2022/01/03 03:59:48;;;;;;;21.73;3.33;;;8.70;99.90;;;;;;5077378;28;20055;-95
2022/01/03 04:02:13;;;;;;;20.05;3.22;;;8.70;99.90;;;;;;5060911;28;20414;-94
2022/01/03 04:04:39;;;;;;;24.02;3.35;;;8.80;99.90;;;;;;5060376;28;20557;-94
2022/01/03 04:07:05;;;;;;;22.67;3.03;;;8.80;99.90;;;;;;5060808;28;20539;-93
2022/01/03 04:09:30;;;;;;;18.63;2.97;;;8.80;99.90;;;;;;5077296;28;20051;-94
2022/01/03 04:11:56;;;;;;;22.35;2.88;;;8.80;99.90;;;;;;5060413;28;20561;-94
2022/01/03 04:14:22;;;;;;;25.30;3.47;;;8.90;99.90;;;;;;5077116;28;20074;-93
2022/01/03 04:16:50;;;;;;;19.27;2.88;;;8.80;99.90;;;;;;5076759;28;20048;-95
2022/01/03 04:19:16;;;;;;;23.65;3.08;;;8.80;99.90;;;;;;5060622;28;20064;-94
2022/01/03 04:21:42;;;;;;;29.73;3.50;;;8.80;99.90;;;;;;5060654;28;20101;-95
2022/01/03 04:24:10;;;;;;;25.05;4.22;;;8.80;99.90;;;;;;5077002;28;20158;-94
2022/01/03 04:26:37;;;;;;;27.90;3.67;;;8.80;99.90;;;;;;5060991;28;20194;-94
2022/01/03 04:29:03;;;;;;;28.00;4.57;;;9.10;99.90;;;;;;5060269;28;20048;-93
2022/01/03 04:31:30;;;;;;;33.55;3.55;;;8.90;99.90;;;;;;5077237;28;20044;-93
2022/01/03 04:33:57;;;;;;;28.13;4.38;;;9.00;99.90;;;;;;5060456;28;20067;-95
2022/01/03 04:36:24;;;;;;;32.58;3.90;;;9.20;99.90;;;;;;5060488;28;20051;-94
2022/01/03 04:38:50;;;;;;;34.85;3.55;;;9.00;99.90;;;;;;5059982;28;20083;-93
2022/01/03 04:41:16;;;;;;;27.38;3.00;;;9.00;99.90;;;;;;5060197;28;20142;-93
2022/01/03 04:43:42;;;;;;;28.02;3.38;;;9.10;99.90;;;;;;5059957;28;20048;-94
2022/01/03 04:46:09;;;;;;;21.20;3.55;;;9.00;99.90;;;;;;5060294;28;20074;-95
2022/01/03 04:48:53;;;;;;;25.58;3.08;;;9.10;99.90;;;;;;5060349;28;20052;-94
2022/01/03 04:51:22;;;;;;;23.70;3.00;;;9.00;99.90;;;;;;5059430;28;20044;-96
2022/01/03 04:53:48;;;;;;;27.65;3.63;;;9.10;99.90;;;;;;5076611;28;20040;-92
2022/01/03 04:56:14;;;;;;;27.13;3.70;;;9.10;99.90;;;;;;5076283;28;20091;-94
2022/01/03 04:58:40;;;;;;;24.02;3.40;;;9.30;99.90;;;;;;5059809;28;20591;-95
2022/01/03 05:01:07;;;;;;;25.42;4.05;;;9.10;99.90;;;;;;5060361;28;20092;-96
2022/01/03 05:03:33;;;;;;;24.70;3.28;;;9.20;99.90;;;;;;5060678;28;20147;-93
2022/01/03 05:06:01;;;;;;;29.50;3.53;;;9.00;99.90;;;;;;5076848;28;20158;-94
2022/01/03 05:08:31;;;;;;;33.92;3.50;;;9.00;99.90;;;;;;5059594;28;20055;-92
2022/01/03 05:11:00;;;;;;;23.55;3.20;;;9.00;99.90;;;;;;5059788;28;20048;-93
2022/01/03 05:13:27;;;;;;;27.23;4.30;;;9.00;99.90;;;;;;5059783;28;20409;-93
2022/01/03 05:15:52;;;;;;;29.67;4.00;;;9.00;99.90;;;;;;5059816;28;20098;-92
2022/01/03 05:18:18;;;;;;;27.27;3.92;;;9.20;99.90;;;;;;5076412;28;20117;-94
2022/01/03 05:20:44;;;;;;;29.50;3.35;;;8.90;99.90;;;;;;5077075;28;20048;-95
2022/01/03 05:23:12;;;;;;;33.50;3.47;;;8.90;99.90;;;;;;5060184;28;20059;-95
2022/01/03 05:25:38;;;;;;;28.67;3.67;;;8.90;99.90;;;;;;5056293;28;20059;-94
2022/01/03 05:28:04;;;;;;;33.22;4.18;;;8.90;99.90;;;;;;5056932;28;20139;-95
2022/01/03 05:30:30;;;;;;;27.95;4.13;;;8.80;99.90;;;;;;5057019;28;20078;-93
2022/01/03 05:32:56;;;;;;;32.58;4.10;;;9.10;99.90;;;;;;5073388;28;20132;-94
2022/01/03 05:35:22;;;;;;;27.92;3.40;;;8.70;99.90;;;;;;5056998;28;20052;-96
2022/01/03 05:37:47;;;;;;;34.03;3.92;;;8.80;99.90;;;;;;5056988;28;20052;-94
2022/01/03 05:40:13;;;;;;;32.03;4.07;;;8.70;99.90;;;;;;5057023;28;20406;-95
2022/01/03 05:42:41;;;;;;;24.20;3.47;;;8.70;99.90;;;;;;5056758;28;20105;-93
2022/01/03 05:45:07;;;;;;;35.58;4.25;;;8.70;99.90;;;;;;5056850;28;20118;-93
2022/01/03 05:47:32;;;;;;;27.17;3.80;;;8.60;99.90;;;;;;5056299;28;20052;-93
2022/01/03 05:49:59;;;;;;;27.02;3.35;;;8.70;99.90;;;;;;5056115;28;20048;-94
2022/01/03 05:52:25;;;;;;;31.75;4.43;;;8.50;99.90;;;;;;5056236;28;20502;-92
2022/01/03 05:54:52;;;;;;;36.75;4.20;;;8.60;99.90;;;;;;5056527;28;20052;-93
2022/01/03 05:57:18;;;;;;;29.52;3.90;;;8.30;99.90;;;;;;5056098;28;20056;-93
2022/01/03 05:59:44;;;;;;;38.25;4.47;;;8.40;99.90;;;;;;5055764;28;20135;-94
2022/01/03 06:02:10;;;;;;;33.60;3.88;;;8.30;99.90;;;;;;5076209;28;20139;-95
2022/01/03 06:04:59;;;;;;;38.88;4.82;;;8.30;99.90;;;;;;5077187;28;20056;-94
2022/01/03 06:07:22;;;;;;;28.15;4.05;;;8.30;99.90;;;;;;5075459;28;20084;-94
2022/01/03 06:09:49;;;;;;;34.25;4.60;;;8.30;99.90;;;;;;5060058;28;20052;-94
2022/01/03 06:12:17;;;;;;;41.13;4.85;;;8.30;99.90;;;;;;5059215;28;20052;-93
2022/01/03 06:14:44;;;;;;;34.85;4.32;;;8.50;99.90;;;;;;5060013;28;20059;-94
2022/01/03 06:17:10;;;;;;;32.88;5.10;;;8.50;99.90;;;;;;5059607;28;20083;-93
2022/01/03 06:19:36;;;;;;;35.28;3.97;;;8.30;99.90;;;;;;5059554;28;20147;-93
2022/01/03 06:22:03;;;;;;;45.95;4.80;;;8.30;99.90;;;;;;5076301;28;20087;-92
2022/01/03 06:24:29;;;;;;;27.38;4.20;;;8.20;99.90;;;;;;5076296;28;20053;-92
2022/01/03 06:26:55;;;;;;;37.67;4.43;;;8.20;99.90;;;;;;5059054;28;20064;-94
2022/01/03 06:29:21;;;;;;;36.78;4.28;;;8.30;99.90;;;;;;5059340;28;20044;-93
2022/01/03 06:31:56;;;;;;;31.42;3.78;;;8.20;99.90;;;;;;5059321;28;20048;-95
2022/01/03 06:34:21;;;;;;;30.38;3.95;;;8.20;99.90;;;;;;5059584;28;20057;-95
2022/01/03 06:36:47;;;;;;;32.50;4.00;;;8.20;99.90;;;;;;5059408;28;20048;-94
2022/01/03 06:39:13;;;;;;;41.22;4.75;;;8.40;99.90;;;;;;5058909;28;20062;-94
2022/01/03 06:41:43;;;;;;;30.73;3.88;;;8.10;99.90;;;;;;5059289;28;20052;-93
2022/01/03 06:44:09;;;;;;;33.10;3.70;;;8.10;99.90;;;;;;5076711;28;20087;-93
2022/01/03 06:46:38;;;;;;;33.10;4.30;;;8.20;99.90;;;;;;5059236;28;20100;-93
2022/01/03 06:49:05;;;;;;;36.50;4.80;;;8.30;99.90;;;;;;5059449;28;20399;-92
2022/01/03 06:51:34;;;;;;;36.42;4.10;;;8.20;99.90;;;;;;5059656;28;20398;-94
2022/01/03 06:54:05;;;;;;;39.80;5.75;;;8.30;99.90;;;;;;5059170;28;20102;-93
2022/01/03 06:56:31;;;;;;;;;;;8.30;99.90;;;;;;5059372;28;20137;-94
2022/01/03 06:58:56;;;;;;;35.90;4.60;;;8.40;99.90;;;;;;5059543;28;19924;-93
2022/01/03 07:01:22;;;;;;;29.52;3.45;;;8.40;99.90;;;;;;5075846;28;20048;-96
2022/01/03 07:04:44;;;;;;;33.75;4.85;;;8.40;99.90;;;;;;5058977;28;20061;-93
2022/01/03 07:07:09;;;;;;;;;;;8.40;99.90;;;;;;5059207;28;20067;-93
2022/01/03 07:09:35;;;;;;;52.45;5.00;;;8.40;99.90;;;;;;5058647;28;19924;-94
2022/01/03 07:12:01;;;;;;;34.63;4.25;;;8.50;99.90;;;;;;5074552;28;20518;-94
2022/01/03 07:20:09;;;;;;;47.60;5.00;;;8.40;99.90;;;;;;5075545;28;20380;-93
2022/01/03 07:22:39;;;;;;;40.15;5.32;;;8.40;99.90;;;;;;5075268;28;20060;-94
2022/01/03 07:25:08;;;;;;;36.22;4.85;;;8.80;99.90;;;;;;5058161;28;20060;-93
2022/01/03 07:27:34;;;;;;;36.70;4.95;;;8.50;99.90;;;;;;5058336;28;20045;-93
2022/01/03 07:30:00;;;;;;;46.40;6.20;;;8.90;99.90;;;;;;5058477;28;20060;-94
2022/01/03 07:32:25;;;;;;;39.67;5.82;;;8.70;99.90;;;;;;5058913;28;20083;-94
2022/01/03 07:34:51;;;;;;;38.08;4.40;;;8.80;99.90;;;;;;5059452;28;20136;-94
2022/01/03 07:37:18;;;;;;;48.08;4.88;;;9.10;99.90;;;;;;5060093;28;20044;-95
2022/01/03 07:39:43;;;;;;;47.75;5.78;;;9.20;99.90;;;;;;5059105;28;20055;-95
2022/01/03 07:42:09;;;;;;;43.72;4.93;;;8.90;99.90;;;;;;5074871;28;20045;-94
2022/01/03 07:44:35;;;;;;;43.13;5.07;;;9.10;99.90;;;;;;5058785;28;20063;-93
2022/01/03 07:47:01;;;;;;;37.53;5.97;;;9.00;99.90;;;;;;5058387;28;20064;-94
2022/01/03 07:49:26;;;;;;;44.35;6.13;;;9.10;99.90;;;;;;5075968;28;20086;-94
2022/01/03 07:51:52;;;;;;;46.08;5.00;;;9.30;99.90;;;;;;5075352;28;20139;-94
2022/01/03 07:54:18;;;;;;;45.30;5.85;;;9.10;99.90;;;;;;5066925;28;20048;-94
2022/01/03 07:56:46;;;;;;;37.42;5.55;;;9.10;99.90;;;;;;5060426;28;20131;-94
2022/01/03 07:59:11;;;;;;;34.85;4.68;;;9.10;99.90;;;;;;5075864;28;20075;-94
2022/01/03 08:01:40;;;;;;;34.00;5.03;;;9.30;99.90;;;;;;5060410;28;20055;-95
2022/01/03 08:04:24;;;;;;;29.95;4.03;;;9.30;99.90;;;;;;5068453;28;20045;-94
2022/01/03 08:06:50;;;;;;;35.03;4.85;;;9.30;99.90;;;;;;5040412;28;20490;-95
2022/01/03 08:09:19;;;;;;;35.95;4.75;;;9.30;99.90;;;;;;5048589;28;20075;-95
2022/01/03 08:11:44;;;;;;;41.50;4.72;;;9.30;99.90;;;;;;5070383;28;20052;-94
2022/01/03 08:14:13;;;;;;;35.83;4.50;;;9.20;99.90;;;;;;5051967;28;20060;-96
2022/01/03 08:16:39;;;;;;;28.92;3.83;;;9.40;99.90;;;;;;5043037;28;20052;-95
2022/01/03 08:19:04;;;;;;;28.23;3.90;;;9.40;99.90;;;;;;5039786;28;20134;-92
2022/01/03 08:21:30;;;;;;;36.58;4.15;;;9.60;99.90;;;;;;5055784;28;20566;-95
2022/01/03 08:23:56;;;;;;;35.08;5.68;;;9.50;99.90;;;;;;5038435;28;20469;-94
2022/01/03 08:26:22;;;;;;;40.90;4.68;;;9.40;99.90;;;;;;5021713;28;20059;-95
2022/01/03 08:28:48;;;;;;;44.00;5.30;;;9.50;99.90;;;;;;5021287;28;20482;-93
2022/01/03 08:31:13;;;;;;;32.20;4.55;;;9.40;99.90;;;;;;5036514;28;20127;-94
2022/01/03 08:34:00;;;;;;;45.42;5.78;;;9.50;99.90;;;;;;5058217;28;20060;-93
2022/01/03 08:36:25;;;;;;;37.75;4.95;;;9.50;99.90;;;;;;5042074;28;20064;-94
2022/01/03 08:38:54;;;;;;;37.67;5.00;;;9.30;99.90;;;;;;5041873;28;20497;-94
2022/01/03 08:41:20;;;;;;;31.25;4.10;;;9.80;99.90;;;;;;5042031;28;20044;-95
2022/01/03 08:43:46;;;;;;;38.58;6.43;;;9.50;99.90;;;;;;5046263;28;20091;-94
2022/01/03 08:46:14;;;;;;;34.78;4.65;;;9.60;99.90;;;;;;5043614;28;20059;-94
2022/01/03 08:48:40;;;;;;;40.25;4.82;;;9.50;99.90;;;;;;5044982;28;20048;-92
2022/01/03 08:51:08;;;;;;;35.10;4.55;;;9.40;99.90;;;;;;5056286;28;20081;-96
2022/01/03 08:53:35;;;;;;;35.47;5.05;;;9.70;99.90;;;;;;5040456;28;20048;-92
2022/01/03 08:56:03;;;;;;;34.58;4.78;;;9.60;99.90;;;;;;5040842;28;20106;-92
2022/01/03 08:58:32;;;;;;;37.58;6.70;;;9.60;99.90;;;;;;5058338;28;20394;-95
2022/01/03 09:01:00;;;;;;;36.53;4.90;;;9.60;99.90;;;;;;5065205;28;20048;-96
2022/01/03 09:03:26;;;;;;;43.65;6.00;;;9.70;99.90;;;;;;5037470;28;20064;-91
2022/01/03 09:05:55;;;;;;;37.83;4.68;;;9.70;99.90;;;;;;5039807;28;20090;-95
2022/01/03 09:08:22;;;;;;;29.63;4.30;;;10.00;99.90;;;;;;5056281;28;20044;-94
2022/01/03 09:10:49;;;;;;;29.52;3.72;;;9.80;99.90;;;;;;5033756;28;20048;-96
2022/01/03 09:13:15;;;;;;;29.73;3.92;;;10.00;99.90;;;;;;5021625;28;20053;-95
2022/01/03 09:15:44;;;;;;;29.85;4.07;;;9.90;99.90;;;;;;5039815;28;20044;-95
2022/01/03 09:18:18;;;;;;;37.75;5.15;;;9.90;99.90;;;;;;5029354;28;20049;-95
2022/01/03 09:20:45;;;;;;;21.48;3.90;;;9.90;99.90;;;;;;5021442;28;20394;-96
2022/01/03 09:23:18;;;;;;;32.97;4.40;;;9.90;99.90;;;;;;5029172;28;20041;-94
2022/01/03 09:31:16;;;;;;;27.30;3.55;;;10.20;99.90;;;;;;5075792;28;20080;-96
2022/01/03 09:37:42;;;;;;;27.60;4.40;;;10.20;99.90;;;;;;5099527;28;20055;-96
2022/01/03 09:40:08;;;;;;;28.10;3.88;;;10.40;99.90;;;;;;5048856;28;20460;-96
2022/01/03 09:42:35;;;;;;;36.88;3.65;;;10.40;99.90;;;;;;5049289;28;20084;-95
2022/01/03 09:45:11;;;;;;;30.27;4.78;;;10.40;99.90;;;;;;5077384;28;20044;-96
2022/01/03 09:47:39;;;;;;;32.03;4.53;;;10.30;99.90;;;;;;5082500;28;20047;-96
2022/01/03 09:50:09;;;;;;;31.60;4.43;;;10.30;99.90;;;;;;5054110;28;20121;-96
2022/01/03 09:52:36;;;;;;;37.75;5.20;;;10.30;99.90;;;;;;5057403;28;20485;-96
2022/01/03 09:55:12;;;;;;;26.30;3.40;;;10.40;99.90;;;;;;5060669;28;20056;-96
2022/01/03 09:57:46;;;;;;;33.63;5.07;;;10.50;99.90;;;;;;5074084;28;20052;-96
2022/01/03 10:00:22;;;;;;;25.00;4.15;;;10.60;99.90;;;;;;5067599;28;20052;-95
2022/01/03 10:03:01;;;;;;;35.75;3.88;;;10.60;99.90;;;;;;5139432;22;21921;-95
2022/01/03 10:06:00;;;;;;;31.70;4.13;;;10.70;99.90;;;;;;5017573;28;20104;-93
2022/01/03 10:08:50;;;;;;;27.88;4.30;;;10.70;99.90;;;;;;4982730;28;20050;-95
2022/01/03 10:11:47;;;;;;;26.55;4.82;;;10.60;99.90;;;;;;5016546;28;20072;-95
2022/01/03 10:14:16;;;;;;;24.23;3.45;;;10.60;99.90;;;;;;4987143;28;20045;-93
2022/01/03 10:16:45;;;;;;;35.20;5.05;;;10.60;99.90;;;;;;4988186;28;20054;-91
2022/01/03 10:19:14;;;;;;;32.03;4.72;;;10.50;99.90;;;;;;4969400;28;20061;-91
2022/01/03 10:21:41;;;;;;;29.15;3.88;;;10.50;99.90;;;;;;5017459;28;20084;-90
2022/01/03 10:24:14;;;;;;;25.73;4.43;;;10.40;99.90;;;;;;4987785;28;20054;-95
2022/01/03 10:27:04;;;;;;;27.63;4.43;;;10.40;99.90;;;;;;5025176;28;20148;-92
2022/01/03 10:29:31;;;;;;;27.42;3.25;;;10.50;99.90;;;;;;4986238;28;20080;-93
2022/01/03 10:32:44;;;;;;;29.63;4.65;;;10.50;99.90;;;;;;5003266;28;20046;-95
2022/01/03 10:39:30;;;;;;;22.20;3.78;;;10.70;99.90;;;;;;4906519;29;20109;-94
2022/01/03 10:42:18;;;;;;;;;;;10.80;99.90;;;;;;4899919;29;20071;-94
2022/01/03 10:44:45;;;;;;;28.98;3.95;;;10.70;99.90;;;;;;4880766;29;19924;-94
2022/01/03 10:47:34;;;;;;;25.58;3.28;;;10.60;99.90;;;;;;4856687;29;20061;-95
2022/01/03 10:53:44;;;;;;;32.30;4.38;;;10.60;99.90;;;;;;4861807;29;20150;-93
2022/01/03 10:57:00;;;;;;;29.67;4.10;;;10.90;99.90;;;;;;4831177;29;20505;-95
2022/01/03 10:59:42;;;;;;;30.95;4.85;;;11.40;99.90;;;;;;4849110;29;20476;-96
2022/01/03 11:02:23;;;;;;;29.42;3.97;;;11.90;99.90;;;;;;4836478;29;20072;-95
2022/01/03 11:04:58;;;;;;;28.75;4.47;;;11.70;99.90;;;;;;4854972;29;20110;-96
2022/01/03 11:10:47;;;;;;;24.45;4.18;;;11.70;99.90;;;;;;4892011;29;20052;-95
2022/01/03 11:13:22;;;;;;;29.13;3.83;;;11.50;99.90;;;;;;4876395;29;20064;-93
2022/01/03 11:16:10;;;;;;;23.73;3.95;;;11.30;99.90;;;;;;4907217;28;20055;-94
2022/01/03 11:19:06;;;;;;;26.33;3.85;;;11.10;99.90;;;;;;4957122;28;20101;-94
2022/01/03 11:21:58;;;;;;;30.95;4.60;;;10.90;99.90;;;;;;4918887;29;20134;-94
2022/01/03 11:24:28;;;;;;;31.80;4.78;;;10.90;99.90;;;;;;4930254;28;20139;-95
2022/01/03 11:27:10;;;;;;;33.95;4.43;;;10.80;99.90;;;;;;4973445;28;20054;-94
2022/01/03 11:29:43;;;;;;;37.75;4.47;;;10.80;99.90;;;;;;4984148;28;20061;-96
2022/01/03 11:32:26;;;;;;;37.92;4.95;;;10.90;99.90;;;;;;4982937;28;20058;-96
2022/01/03 11:34:52;;;;;;;27.42;3.42;;;10.90;99.90;;;;;;4964506;28;20077;-93
2022/01/03 11:37:30;;;;;;;28.42;4.22;;;11.00;99.90;;;;;;4963697;28;20058;-96
2022/01/03 11:40:05;;;;;;;24.00;3.92;;;11.40;99.90;;;;;;4979468;28;20058;-95
2022/01/03 11:42:38;;;;;;;25.35;3.53;;;11.70;99.90;;;;;;4957653;28;20051;-93
2022/01/03 11:45:16;;;;;;;22.13;3.35;;;11.60;99.90;;;;;;4950162;28;20050;-95
2022/01/03 11:54:04;;;;;;;25.65;4.47;;;11.90;99.90;;;;;;4950722;29;20043;-90
2022/01/03 11:56:41;;;;;;;32.85;4.95;;;12.30;99.90;;;;;;4950837;29;20059;-96
2022/01/03 12:05:32;;;;;;;25.50;3.75;;;12.10;99.90;;;;;;4929358;29;20113;-95
2022/01/03 12:08:01;;;;;;;25.98;4.18;;;12.00;99.90;;;;;;4917578;29;20475;-94
2022/01/03 12:10:28;;;;;;;27.95;4.40;;;12.10;99.90;;;;;;4920610;29;20144;-95
2022/01/03 12:13:09;;;;;;;28.77;3.60;;;12.40;99.90;;;;;;4897062;29;20430;-95
2022/01/03 12:15:37;;;;;;;26.70;3.92;;;12.30;99.90;;;;;;4869757;29;20465;-94
2022/01/03 12:18:30;;;;;;;28.35;3.85;;;12.20;99.90;;;;;;4866607;29;20461;-95
2022/01/03 12:20:56;;;;;;;24.40;4.05;;;12.50;99.90;;;;;;4875987;29;20067;-91
2022/01/03 12:23:39;;;;;;;29.52;4.15;;;12.40;99.90;;;;;;4904438;29;20411;-94
2022/01/03 12:26:13;;;;;;;31.98;4.60;;;12.30;99.90;;;;;;4902915;29;20563;-95
2022/01/03 12:29:03;;;;;;;23.48;3.22;;;12.10;99.90;;;;;;4954666;28;20066;-96
2022/01/03 12:32:08;;;;;;;24.20;3.50;;;12.10;99.90;;;;;;4943585;28;20082;-94
2022/01/03 12:34:34;;;;;;;31.27;4.80;;;12.10;99.90;;;;;;4924522;29;20086;-94
2022/01/03 12:37:18;;;;;;;26.50;3.03;;;12.00;99.90;;;;;;4941728;29;20065;-93
2022/01/03 12:40:02;;;;;;;21.35;3.75;;;12.00;99.90;;;;;;4956099;29;20180;-94
2022/01/03 12:42:48;;;;;;;29.50;4.38;;;11.80;99.90;;;;;;4924283;29;20062;-92
2022/01/03 12:45:17;;;;;;;31.05;4.00;;;11.80;99.90;;;;;;4958752;28;20563;-92
2022/01/03 12:47:44;;;;;;;29.48;4.22;;;11.70;99.90;;;;;;4959961;28;20145;-92
2022/01/03 12:50:28;;;;;;;26.05;4.15;;;11.90;99.90;;;;;;4959711;28;20065;-94
2022/01/03 12:53:06;;;;;;;25.08;4.10;;;11.90;99.90;;;;;;4943026;28;20437;-94
2022/01/03 12:55:37;;;;;;;37.05;4.32;;;11.70;99.90;;;;;;4943132;28;20062;-93
2022/01/03 12:58:04;;;;;;;25.55;4.18;;;11.80;99.90;;;;;;4974549;28;20050;-94
2022/01/03 13:00:44;;;;;;;28.10;4.05;;;11.90;99.90;;;;;;4974764;28;20090;-94
2022/01/03 13:04:03;;;;;;;23.80;3.90;;;11.90;99.90;;;;;;4975459;28;20091;-93
2022/01/03 13:06:32;;;;;;;27.05;3.75;;;11.60;99.90;;;;;;4989881;28;20057;-93
2022/01/03 13:09:13;;;;;;;35.97;4.57;;;11.50;99.90;;;;;;5001580;28;20160;-93
2022/01/03 13:11:49;;;;;;;24.05;4.18;;;11.50;99.90;;;;;;5000427;28;20121;-92
2022/01/03 13:14:20;;;;;;;24.13;3.45;;;11.40;99.90;;;;;;5001118;28;20060;-93
2022/01/03 13:16:58;;;;;;;32.92;4.22;;;11.40;99.90;;;;;;5019204;28;20407;-93
2022/01/03 13:19:30;;;;;;;31.45;4.50;;;11.80;99.90;;;;;;5017853;28;20454;-92
2022/01/03 13:22:13;;;;;;;26.98;4.13;;;11.90;99.90;;;;;;5001270;28;20057;-94
2022/01/03 13:24:49;;;;;;;26.20;3.75;;;12.10;99.90;;;;;;5016987;28;20054;-94
2022/01/03 13:27:17;;;;;;;24.80;3.72;;;12.20;99.90;;;;;;5001497;28;20193;-93
2022/01/03 13:29:51;;;;;;;27.48;3.60;;;12.00;99.90;;;;;;5001157;28;20437;-92
2022/01/03 13:32:33;;;;;;;27.83;4.32;;;12.10;99.90;;;;;;5001042;28;20049;-96
2022/01/03 13:35:04;;;;;;;40.53;5.20;;;12.00;99.90;;;;;;5001041;28;20050;-93
2022/01/03 13:37:31;;;;;;;28.23;3.88;;;12.00;99.90;;;;;;5002816;28;20064;-95
2022/01/03 13:40:01;;;;;;;27.02;3.63;;;11.90;99.90;;;;;;5003600;28;20117;-95
2022/01/03 13:50:50;;;;;;;35.80;4.70;;;11.70;99.90;;;;;;5019470;28;20053;-96
2022/01/03 13:53:16;;;;;;;34.63;4.63;;;11.70;99.90;;;;;;5002099;28;20466;-94